sensor_id;sensor_type;location;lat;lon;timestamp;P1;durP1;ratioP1;P2;durP2;ratioP2
27706;SDS011;36332;51.384;0.040;2024-02-15T00:00:02;3.35;;;2.20;;
27706;SDS011;36332;51.384;0.040;2024-02-15T00:02:30;3.13;;;1.95;;
27706;SDS011;36332;51.384;0.040;2024-02-15T00:04:58;2.45;;;2.25;;
27706;SDS011;36332;51.384;0.040;2024-02-15T00:07:27;2.15;;;1.95;;
27706;SDS011;36332;51.384;0.040;2024-02-15T00:09:55;3.28;;;2.20;;
27706;SDS011;36332;51.384;0.040;2024-02-15T00:12:23;4.32;;;1.73;;
27706;SDS011;36332;51.384;0.040;2024-02-15T00:14:51;4.13;;;1.52;;
27706;SDS011;36332;51.384;0.040;2024-02-15T00:17:19;3.63;;;1.58;;
27706;SDS011;36332;51.384;0.040;2024-02-15T00:19:46;1.05;;;0.95;;
27706;SDS011;36332;51.384;0.040;2024-02-15T00:22:14;1.63;;;1.08;;
27706;SDS011;36332;51.384;0.040;2024-02-15T00:24:42;2.00;;;1.25;;
27706;SDS011;36332;51.384;0.040;2024-02-15T00:27:12;2.20;;;1.67;;
27706;SDS011;36332;51.384;0.040;2024-02-15T00:29:40;2.17;;;1.70;;
27706;SDS011;36332;51.384;0.040;2024-02-15T00:32:09;4.18;;;2.25;;
27706;SDS011;36332;51.384;0.040;2024-02-15T00:34:40;3.40;;;2.22;;
27706;SDS011;36332;51.384;0.040;2024-02-15T00:37:08;6.72;;;3.10;;
27706;SDS011;36332;51.384;0.040;2024-02-15T00:39:36;6.88;;;2.63;;
27706;SDS011;36332;51.384;0.040;2024-02-15T00:42:04;5.90;;;3.55;;
27706;SDS011;36332;51.384;0.040;2024-02-15T00:44:36;6.30;;;3.90;;
27706;SDS011;36332;51.384;0.040;2024-02-15T00:47:04;6.40;;;3.83;;
27706;SDS011;36332;51.384;0.040;2024-02-15T00:49:32;10.98;;;4.32;;
27706;SDS011;36332;51.384;0.040;2024-02-15T00:52:02;10.70;;;4.22;;
27706;SDS011;36332;51.384;0.040;2024-02-15T00:54:30;9.93;;;3.92;;
27706;SDS011;36332;51.384;0.040;2024-02-15T00:56:58;6.72;;;4.25;;
27706;SDS011;36332;51.384;0.040;2024-02-15T00:59:25;7.60;;;4.90;;
27706;SDS011;36332;51.384;0.040;2024-02-15T01:01:53;6.68;;;4.05;;
27706;SDS011;36332;51.384;0.040;2024-02-15T01:04:21;9.57;;;4.95;;
27706;SDS011;36332;51.384;0.040;2024-02-15T01:06:49;6.70;;;4.95;;
27706;SDS011;36332;51.384;0.040;2024-02-15T01:09:18;9.23;;;4.65;;
27706;SDS011;36332;51.384;0.040;2024-02-15T01:11:46;10.20;;;5.40;;
27706;SDS011;36332;51.384;0.040;2024-02-15T01:14:15;6.55;;;5.03;;
27706;SDS011;36332;51.384;0.040;2024-02-15T01:16:42;16.77;;;5.20;;
27706;SDS011;36332;51.384;0.040;2024-02-15T01:19:11;8.90;;;4.53;;
27706;SDS011;36332;51.384;0.040;2024-02-15T01:21:40;10.75;;;4.68;;
27706;SDS011;36332;51.384;0.040;2024-02-15T01:24:09;9.82;;;4.93;;
27706;SDS011;36332;51.384;0.040;2024-02-15T01:26:38;7.13;;;5.32;;
27706;SDS011;36332;51.384;0.040;2024-02-15T01:29:06;7.25;;;5.78;;
27706;SDS011;36332;51.384;0.040;2024-02-15T01:31:37;8.80;;;5.55;;
27706;SDS011;36332;51.384;0.040;2024-02-15T01:34:06;8.48;;;5.95;;
27706;SDS011;36332;51.384;0.040;2024-02-15T01:36:34;9.48;;;6.07;;
27706;SDS011;36332;51.384;0.040;2024-02-15T01:39:01;9.25;;;6.75;;
27706;SDS011;36332;51.384;0.040;2024-02-15T01:41:29;9.38;;;6.90;;
27706;SDS011;36332;51.384;0.040;2024-02-15T01:43:57;15.88;;;8.38;;
27706;SDS011;36332;51.384;0.040;2024-02-15T01:46:25;13.68;;;7.40;;
27706;SDS011;36332;51.384;0.040;2024-02-15T01:48:53;22.48;;;7.80;;
27706;SDS011;36332;51.384;0.040;2024-02-15T01:51:21;14.02;;;7.90;;
27706;SDS011;36332;51.384;0.040;2024-02-15T01:53:50;16.58;;;7.97;;
27706;SDS011;36332;51.384;0.040;2024-02-15T01:56:19;17.88;;;7.95;;
27706;SDS011;36332;51.384;0.040;2024-02-15T01:58:49;13.82;;;7.68;;
27706;SDS011;36332;51.384;0.040;2024-02-15T02:01:20;18.23;;;8.25;;
27706;SDS011;36332;51.384;0.040;2024-02-15T02:03:49;14.88;;;8.10;;
27706;SDS011;36332;51.384;0.040;2024-02-15T02:06:17;15.98;;;9.45;;
27706;SDS011;36332;51.384;0.040;2024-02-15T02:08:46;19.15;;;9.55;;
27706;SDS011;36332;51.384;0.040;2024-02-15T02:11:15;17.30;;;9.65;;
27706;SDS011;36332;51.384;0.040;2024-02-15T02:13:42;15.30;;;9.38;;
27706;SDS011;36332;51.384;0.040;2024-02-15T02:16:29;16.98;;;8.88;;
27706;SDS011;36332;51.384;0.040;2024-02-15T02:18:59;14.00;;;7.32;;
27706;SDS011;36332;51.384;0.040;2024-02-15T02:21:28;10.38;;;6.70;;
27706;SDS011;36332;51.384;0.040;2024-02-15T02:23:57;6.70;;;5.03;;
27706;SDS011;36332;51.384;0.040;2024-02-15T02:26:25;7.35;;;5.03;;
27706;SDS011;36332;51.384;0.040;2024-02-15T02:28:53;10.40;;;4.20;;
27706;SDS011;36332;51.384;0.040;2024-02-15T02:34:16;6.05;;;3.58;;
27706;SDS011;36332;51.384;0.040;2024-02-15T02:36:48;4.68;;;2.53;;
27706;SDS011;36332;51.384;0.040;2024-02-15T02:39:17;4.43;;;2.63;;
27706;SDS011;36332;51.384;0.040;2024-02-15T02:41:46;2.50;;;2.30;;
27706;SDS011;36332;51.384;0.040;2024-02-15T02:44:15;2.38;;;1.60;;
27706;SDS011;36332;51.384;0.040;2024-02-15T02:46:43;2.22;;;1.83;;
27706;SDS011;36332;51.384;0.040;2024-02-15T02:49:12;2.35;;;1.52;;
27706;SDS011;36332;51.384;0.040;2024-02-15T02:51:42;1.85;;;1.65;;
27706;SDS011;36332;51.384;0.040;2024-02-15T02:54:10;2.80;;;1.23;;
27706;SDS011;36332;51.384;0.040;2024-02-15T02:56:39;1.52;;;0.93;;
27706;SDS011;36332;51.384;0.040;2024-02-15T02:59:08;1.10;;;1.00;;
27706;SDS011;36332;51.384;0.040;2024-02-15T03:01:36;0.70;;;0.70;;
27706;SDS011;36332;51.384;0.040;2024-02-15T03:04:08;0.80;;;0.80;;
27706;SDS011;36332;51.384;0.040;2024-02-15T03:06:39;1.17;;;0.60;;
27706;SDS011;36332;51.384;0.040;2024-02-15T03:09:11;0.60;;;0.60;;
27706;SDS011;36332;51.384;0.040;2024-02-15T03:11:43;0.65;;;0.65;;
27706;SDS011;36332;51.384;0.040;2024-02-15T03:14:12;0.82;;;0.82;;
27706;SDS011;36332;51.384;0.040;2024-02-15T03:16:44;2.38;;;0.80;;
27706;SDS011;36332;51.384;0.040;2024-02-15T03:19:12;0.60;;;0.60;;
27706;SDS011;36332;51.384;0.040;2024-02-15T03:21:40;0.70;;;0.70;;
27706;SDS011;36332;51.384;0.040;2024-02-15T03:24:14;1.33;;;0.68;;
27706;SDS011;36332;51.384;0.040;2024-02-15T03:26:42;1.13;;;0.70;;
27706;SDS011;36332;51.384;0.040;2024-02-15T03:29:14;2.10;;;0.90;;
27706;SDS011;36332;51.384;0.040;2024-02-15T03:31:43;1.75;;;0.70;;
27706;SDS011;36332;51.384;0.040;2024-02-15T03:34:12;0.88;;;0.73;;
27706;SDS011;36332;51.384;0.040;2024-02-15T03:36:41;0.75;;;0.60;;
27706;SDS011;36332;51.384;0.040;2024-02-15T03:39:10;1.30;;;0.80;;
27706;SDS011;36332;51.384;0.040;2024-02-15T03:41:41;1.80;;;0.98;;
27706;SDS011;36332;51.384;0.040;2024-02-15T03:44:13;2.28;;;1.00;;
27706;SDS011;36332;51.384;0.040;2024-02-15T03:46:42;1.40;;;1.10;;
27706;SDS011;36332;51.384;0.040;2024-02-15T03:49:11;1.05;;;0.95;;
27706;SDS011;36332;51.384;0.040;2024-02-15T03:51:43;1.05;;;0.95;;
27706;SDS011;36332;51.384;0.040;2024-02-15T03:54:12;1.08;;;0.95;;
27706;SDS011;36332;51.384;0.040;2024-02-15T03:56:50;1.15;;;1.05;;
27706;SDS011;36332;51.384;0.040;2024-02-15T03:59:23;1.27;;;0.90;;
27706;SDS011;36332;51.384;0.040;2024-02-15T04:01:56;1.63;;;0.90;;
27706;SDS011;36332;51.384;0.040;2024-02-15T04:04:25;1.13;;;0.93;;
27706;SDS011;36332;51.384;0.040;2024-02-15T04:06:53;3.72;;;1.08;;
27706;SDS011;36332;51.384;0.040;2024-02-15T04:09:22;1.98;;;1.00;;
27706;SDS011;36332;51.384;0.040;2024-02-15T04:11:51;2.80;;;1.38;;
27706;SDS011;36332;51.384;0.040;2024-02-15T04:14:22;2.30;;;1.60;;
27706;SDS011;36332;51.384;0.040;2024-02-15T04:16:52;3.47;;;1.55;;
27706;SDS011;36332;51.384;0.040;2024-02-15T04:19:23;1.83;;;1.70;;
27706;SDS011;36332;51.384;0.040;2024-02-15T04:21:51;3.42;;;2.35;;
27706;SDS011;36332;51.384;0.040;2024-02-15T04:24:19;3.95;;;1.95;;
27706;SDS011;36332;51.384;0.040;2024-02-15T04:26:49;3.47;;;1.70;;
27706;SDS011;36332;51.384;0.040;2024-02-15T04:29:18;2.33;;;1.60;;
27706;SDS011;36332;51.384;0.040;2024-02-15T04:31:50;8.20;;;1.98;;
27706;SDS011;36332;51.384;0.040;2024-02-15T04:34:19;5.03;;;2.60;;
27706;SDS011;36332;51.384;0.040;2024-02-15T04:36:48;6.40;;;2.13;;
27706;SDS011;36332;51.384;0.040;2024-02-15T04:39:22;5.82;;;2.47;;
27706;SDS011;36332;51.384;0.040;2024-02-15T04:41:52;4.38;;;2.60;;
27706;SDS011;36332;51.384;0.040;2024-02-15T04:44:20;5.15;;;2.55;;
27706;SDS011;36332;51.384;0.040;2024-02-15T04:46:49;9.80;;;2.67;;
27706;SDS011;36332;51.384;0.040;2024-02-15T04:49:18;6.03;;;3.25;;
27706;SDS011;36332;51.384;0.040;2024-02-15T04:51:46;9.65;;;3.75;;
27706;SDS011;36332;51.384;0.040;2024-02-15T04:54:15;5.95;;;3.50;;
27706;SDS011;36332;51.384;0.040;2024-02-15T04:56:47;7.53;;;3.70;;
27706;SDS011;36332;51.384;0.040;2024-02-15T04:59:20;13.07;;;5.00;;
27706;SDS011;36332;51.384;0.040;2024-02-15T05:01:52;4.95;;;3.65;;
27706;SDS011;36332;51.384;0.040;2024-02-15T05:04:21;18.40;;;4.60;;
27706;SDS011;36332;51.384;0.040;2024-02-15T05:06:58;11.93;;;4.47;;
27706;SDS011;36332;51.384;0.040;2024-02-15T05:09:27;11.38;;;4.13;;
27706;SDS011;36332;51.384;0.040;2024-02-15T05:11:56;8.65;;;4.18;;
27706;SDS011;36332;51.384;0.040;2024-02-15T05:14:27;17.83;;;4.95;;
27706;SDS011;36332;51.384;0.040;2024-02-15T05:16:56;12.07;;;4.18;;
27706;SDS011;36332;51.384;0.040;2024-02-15T05:19:24;10.27;;;3.92;;
27706;SDS011;36332;51.384;0.040;2024-02-15T05:21:54;8.75;;;3.83;;
27706;SDS011;36332;51.384;0.040;2024-02-15T05:24:23;13.60;;;6.28;;
27706;SDS011;36332;51.384;0.040;2024-02-15T05:26:51;14.02;;;5.50;;
27706;SDS011;36332;51.384;0.040;2024-02-15T05:29:19;11.55;;;5.53;;
27706;SDS011;36332;51.384;0.040;2024-02-15T05:31:48;18.55;;;5.88;;
27706;SDS011;36332;51.384;0.040;2024-02-15T05:34:18;15.50;;;5.28;;
27706;SDS011;36332;51.384;0.040;2024-02-15T05:36:46;11.90;;;5.60;;
27706;SDS011;36332;51.384;0.040;2024-02-15T05:39:17;9.45;;;6.00;;
27706;SDS011;36332;51.384;0.040;2024-02-15T05:41:54;13.48;;;6.72;;
27706;SDS011;36332;51.384;0.040;2024-02-15T05:44:28;13.38;;;7.57;;
27706;SDS011;36332;51.384;0.040;2024-02-15T05:46:58;15.32;;;7.28;;
27706;SDS011;36332;51.384;0.040;2024-02-15T05:49:26;20.83;;;8.40;;
27706;SDS011;36332;51.384;0.040;2024-02-15T05:51:56;14.95;;;7.93;;
27706;SDS011;36332;51.384;0.040;2024-02-15T05:54:25;23.80;;;9.63;;
27706;SDS011;36332;51.384;0.040;2024-02-15T05:56:53;19.52;;;8.63;;
27706;SDS011;36332;51.384;0.040;2024-02-15T05:59:28;19.13;;;8.45;;
27706;SDS011;36332;51.384;0.040;2024-02-15T06:01:57;20.45;;;9.88;;
27706;SDS011;36332;51.384;0.040;2024-02-15T06:04:27;31.08;;;9.63;;
27706;SDS011;36332;51.384;0.040;2024-02-15T06:06:57;20.70;;;9.75;;
27706;SDS011;36332;51.384;0.040;2024-02-15T06:09:33;21.42;;;9.52;;
27706;SDS011;36332;51.384;0.040;2024-02-15T06:12:04;21.10;;;9.77;;
27706;SDS011;36332;51.384;0.040;2024-02-15T06:14:32;13.90;;;8.50;;
27706;SDS011;36332;51.384;0.040;2024-02-15T06:17:01;16.98;;;9.68;;
27706;SDS011;36332;51.384;0.040;2024-02-15T06:19:30;20.38;;;9.50;;
27706;SDS011;36332;51.384;0.040;2024-02-15T06:22:02;21.30;;;9.30;;
27706;SDS011;36332;51.384;0.040;2024-02-15T06:24:32;17.08;;;8.98;;
27706;SDS011;36332;51.384;0.040;2024-02-15T06:27:04;21.88;;;8.15;;
27706;SDS011;36332;51.384;0.040;2024-02-15T06:29:34;18.45;;;7.25;;
27706;SDS011;36332;51.384;0.040;2024-02-15T06:32:22;24.45;;;7.22;;
27706;SDS011;36332;51.384;0.040;2024-02-15T06:35:10;16.73;;;7.05;;
27706;SDS011;36332;51.384;0.040;2024-02-15T06:38:03;21.52;;;6.88;;
27706;SDS011;36332;51.384;0.040;2024-02-15T06:40:50;12.98;;;5.93;;
27706;SDS011;36332;51.384;0.040;2024-02-15T06:43:21;18.23;;;5.53;;
27706;SDS011;36332;51.384;0.040;2024-02-15T06:45:50;13.77;;;5.57;;
27706;SDS011;36332;51.384;0.040;2024-02-15T06:48:20;16.48;;;6.03;;
27706;SDS011;36332;51.384;0.040;2024-02-15T06:50:48;21.25;;;6.63;;
27706;SDS011;36332;51.384;0.040;2024-02-15T06:53:17;16.05;;;6.38;;
27706;SDS011;36332;51.384;0.040;2024-02-15T06:55:48;17.73;;;5.20;;
27706;SDS011;36332;51.384;0.040;2024-02-15T06:58:16;13.52;;;5.43;;
27706;SDS011;36332;51.384;0.040;2024-02-15T07:00:45;18.70;;;6.03;;
27706;SDS011;36332;51.384;0.040;2024-02-15T07:03:13;15.00;;;5.32;;
27706;SDS011;36332;51.384;0.040;2024-02-15T07:05:41;12.45;;;5.28;;
27706;SDS011;36332;51.384;0.040;2024-02-15T07:08:08;14.40;;;5.47;;
27706;SDS011;36332;51.384;0.040;2024-02-15T07:10:40;17.15;;;5.55;;
27706;SDS011;36332;51.384;0.040;2024-02-15T07:13:10;12.65;;;5.50;;
27706;SDS011;36332;51.384;0.040;2024-02-15T07:15:39;14.48;;;5.50;;
27706;SDS011;36332;51.384;0.040;2024-02-15T07:18:08;20.58;;;5.45;;
27706;SDS011;36332;51.384;0.040;2024-02-15T07:20:37;13.52;;;5.55;;
27706;SDS011;36332;51.384;0.040;2024-02-15T07:23:07;13.07;;;4.65;;
27706;SDS011;36332;51.384;0.040;2024-02-15T07:25:36;17.83;;;4.18;;
27706;SDS011;36332;51.384;0.040;2024-02-15T07:28:06;11.35;;;4.13;;
27706;SDS011;36332;51.384;0.040;2024-02-15T07:30:37;13.63;;;5.15;;
27706;SDS011;36332;51.384;0.040;2024-02-15T07:33:06;15.07;;;4.68;;
27706;SDS011;36332;51.384;0.040;2024-02-15T07:35:36;16.65;;;5.35;;
27706;SDS011;36332;51.384;0.040;2024-02-15T07:38:04;14.32;;;4.80;;
27706;SDS011;36332;51.384;0.040;2024-02-15T07:40:33;15.73;;;4.85;;
27706;SDS011;36332;51.384;0.040;2024-02-15T07:43:01;12.38;;;4.25;;
27706;SDS011;36332;51.384;0.040;2024-02-15T07:45:30;11.90;;;4.50;;
27706;SDS011;36332;51.384;0.040;2024-02-15T07:48:04;13.25;;;6.20;;
27706;SDS011;36332;51.384;0.040;2024-02-15T07:50:32;17.58;;;5.57;;
27706;SDS011;36332;51.384;0.040;2024-02-15T07:53:01;10.38;;;4.45;;
27706;SDS011;36332;51.384;0.040;2024-02-15T07:55:29;11.23;;;4.72;;
27706;SDS011;36332;51.384;0.040;2024-02-15T07:57:57;16.13;;;5.18;;
27706;SDS011;36332;51.384;0.040;2024-02-15T08:00:27;13.85;;;5.03;;
27706;SDS011;36332;51.384;0.040;2024-02-15T08:02:57;14.75;;;5.53;;
27706;SDS011;36332;51.384;0.040;2024-02-15T08:05:27;19.27;;;5.25;;
27706;SDS011;36332;51.384;0.040;2024-02-15T08:08:02;14.63;;;5.10;;
27706;SDS011;36332;51.384;0.040;2024-02-15T08:10:31;10.52;;;5.15;;
27706;SDS011;36332;51.384;0.040;2024-02-15T08:13:05;9.88;;;5.28;;
27706;SDS011;36332;51.384;0.040;2024-02-15T08:15:36;13.10;;;4.88;;
27706;SDS011;36332;51.384;0.040;2024-02-15T08:18:06;12.20;;;4.63;;
27706;SDS011;36332;51.384;0.040;2024-02-15T08:20:38;15.55;;;5.07;;
27706;SDS011;36332;51.384;0.040;2024-02-15T08:23:08;15.40;;;4.35;;
27706;SDS011;36332;51.384;0.040;2024-02-15T08:25:38;11.88;;;3.90;;
27706;SDS011;36332;51.384;0.040;2024-02-15T08:28:10;12.70;;;4.88;;
27706;SDS011;36332;51.384;0.040;2024-02-15T08:30:39;11.25;;;4.30;;
27706;SDS011;36332;51.384;0.040;2024-02-15T08:33:11;10.43;;;4.45;;
27706;SDS011;36332;51.384;0.040;2024-02-15T08:35:42;15.73;;;5.03;;
27706;SDS011;36332;51.384;0.040;2024-02-15T08:38:13;16.17;;;4.78;;
27706;SDS011;36332;51.384;0.040;2024-02-15T08:40:42;17.80;;;4.65;;
27706;SDS011;36332;51.384;0.040;2024-02-15T08:43:14;11.80;;;4.50;;
27706;SDS011;36332;51.384;0.040;2024-02-15T08:45:43;10.65;;;4.07;;
27706;SDS011;36332;51.384;0.040;2024-02-15T08:48:11;12.40;;;5.28;;
27706;SDS011;36332;51.384;0.040;2024-02-15T08:50:40;14.82;;;4.18;;
27706;SDS011;36332;51.384;0.040;2024-02-15T08:53:10;14.73;;;4.18;;
27706;SDS011;36332;51.384;0.040;2024-02-15T08:55:43;20.88;;;5.03;;
27706;SDS011;36332;51.384;0.040;2024-02-15T08:58:12;12.85;;;4.20;;
27706;SDS011;36332;51.384;0.040;2024-02-15T09:00:42;13.70;;;4.45;;
27706;SDS011;36332;51.384;0.040;2024-02-15T09:03:12;15.82;;;4.13;;
27706;SDS011;36332;51.384;0.040;2024-02-15T09:05:41;29.98;;;5.82;;
27706;SDS011;36332;51.384;0.040;2024-02-15T09:08:11;11.93;;;3.47;;
27706;SDS011;36332;51.384;0.040;2024-02-15T09:10:41;16.08;;;3.72;;
27706;SDS011;36332;51.384;0.040;2024-02-15T09:13:14;15.93;;;3.45;;
27706;SDS011;36332;51.384;0.040;2024-02-15T09:15:43;15.63;;;3.80;;
27706;SDS011;36332;51.384;0.040;2024-02-15T09:18:11;14.38;;;4.47;;
27706;SDS011;36332;51.384;0.040;2024-02-15T09:20:43;9.45;;;3.97;;
27706;SDS011;36332;51.384;0.040;2024-02-15T09:23:16;16.35;;;4.07;;
27706;SDS011;36332;51.384;0.040;2024-02-15T09:25:45;12.63;;;3.90;;
27706;SDS011;36332;51.384;0.040;2024-02-15T09:28:18;12.45;;;4.40;;
27706;SDS011;36332;51.384;0.040;2024-02-15T09:30:52;13.65;;;3.97;;
27706;SDS011;36332;51.384;0.040;2024-02-15T09:33:27;11.43;;;3.50;;
27706;SDS011;36332;51.384;0.040;2024-02-15T09:35:56;13.80;;;2.95;;
27706;SDS011;36332;51.384;0.040;2024-02-15T09:38:26;17.08;;;4.00;;
27706;SDS011;36332;51.384;0.040;2024-02-15T09:40:55;15.10;;;4.07;;
27706;SDS011;36332;51.384;0.040;2024-02-15T09:43:23;11.00;;;3.97;;
27706;SDS011;36332;51.384;0.040;2024-02-15T09:45:53;15.18;;;3.45;;
27706;SDS011;36332;51.384;0.040;2024-02-15T09:48:23;11.23;;;4.10;;
27706;SDS011;36332;51.384;0.040;2024-02-15T09:50:53;15.63;;;3.85;;
27706;SDS011;36332;51.384;0.040;2024-02-15T09:53:23;14.13;;;3.85;;
27706;SDS011;36332;51.384;0.040;2024-02-15T09:55:56;12.55;;;3.20;;
27706;SDS011;36332;51.384;0.040;2024-02-15T09:58:34;13.23;;;4.13;;
27706;SDS011;36332;51.384;0.040;2024-02-15T10:01:04;31.33;;;6.45;;
27706;SDS011;36332;51.384;0.040;2024-02-15T10:03:38;15.65;;;3.42;;
27706;SDS011;36332;51.384;0.040;2024-02-15T10:06:12;9.00;;;3.25;;
27706;SDS011;36332;51.384;0.040;2024-02-15T10:08:40;16.80;;;4.30;;
27706;SDS011;36332;51.384;0.040;2024-02-15T10:11:11;11.57;;;3.58;;
27706;SDS011;36332;51.384;0.040;2024-02-15T10:13:39;8.02;;;4.15;;
27706;SDS011;36332;51.384;0.040;2024-02-15T10:16:18;10.57;;;3.95;;
27706;SDS011;36332;51.384;0.040;2024-02-15T10:18:53;9.20;;;2.83;;
27706;SDS011;36332;51.384;0.040;2024-02-15T10:21:38;15.27;;;4.55;;
27706;SDS011;36332;51.384;0.040;2024-02-15T10:24:10;15.70;;;4.70;;
27706;SDS011;36332;51.384;0.040;2024-02-15T10:26:41;16.20;;;4.85;;
27706;SDS011;36332;51.384;0.040;2024-02-15T10:29:10;7.53;;;4.00;;
27706;SDS011;36332;51.384;0.040;2024-02-15T10:31:39;15.07;;;5.47;;
27706;SDS011;36332;51.384;0.040;2024-02-15T10:34:21;10.10;;;3.95;;
27706;SDS011;36332;51.384;0.040;2024-02-15T10:36:51;10.88;;;4.38;;
27706;SDS011;36332;51.384;0.040;2024-02-15T10:39:22;16.95;;;5.22;;
27706;SDS011;36332;51.384;0.040;2024-02-15T10:41:53;17.98;;;4.78;;
27706;SDS011;36332;51.384;0.040;2024-02-15T10:44:39;8.60;;;4.45;;
27706;SDS011;36332;51.384;0.040;2024-02-15T10:47:12;11.80;;;4.15;;
27706;SDS011;36332;51.384;0.040;2024-02-15T10:49:42;7.07;;;3.40;;
27706;SDS011;36332;51.384;0.040;2024-02-15T10:52:14;6.93;;;3.95;;
27706;SDS011;36332;51.384;0.040;2024-02-15T10:54:47;11.18;;;3.45;;
27706;SDS011;36332;51.384;0.040;2024-02-15T10:57:27;24.67;;;3.97;;
27706;SDS011;36332;51.384;0.040;2024-02-15T11:00:00;8.32;;;3.47;;
27706;SDS011;36332;51.384;0.040;2024-02-15T11:02:38;12.35;;;2.65;;
27706;SDS011;36332;51.384;0.040;2024-02-15T11:05:12;12.15;;;4.13;;
27706;SDS011;36332;51.384;0.040;2024-02-15T11:07:48;12.82;;;3.40;;
27706;SDS011;36332;51.384;0.040;2024-02-15T11:10:17;7.43;;;2.83;;
27706;SDS011;36332;51.384;0.040;2024-02-15T11:12:46;12.50;;;3.35;;
27706;SDS011;36332;51.384;0.040;2024-02-15T11:18:09;11.68;;;3.20;;
27706;SDS011;36332;51.384;0.040;2024-02-15T11:23:11;9.50;;;3.00;;
27706;SDS011;36332;51.384;0.040;2024-02-15T11:26:03;8.77;;;2.72;;
27706;SDS011;36332;51.384;0.040;2024-02-15T11:28:37;24.10;;;4.47;;
27706;SDS011;36332;51.384;0.040;2024-02-15T11:32:13;6.00;;;3.03;;
27706;SDS011;36332;51.384;0.040;2024-02-15T11:34:41;8.55;;;3.00;;
27706;SDS011;36332;51.384;0.040;2024-02-15T11:43:36;9.05;;;3.05;;
27706;SDS011;36332;51.384;0.040;2024-02-15T11:46:15;10.23;;;3.63;;
27706;SDS011;36332;51.384;0.040;2024-02-15T11:48:47;15.60;;;3.53;;
27706;SDS011;36332;51.384;0.040;2024-02-15T11:51:32;17.77;;;3.67;;
27706;SDS011;36332;51.384;0.040;2024-02-15T11:56:49;7.63;;;4.15;;
27706;SDS011;36332;51.384;0.040;2024-02-15T11:59:53;11.05;;;3.95;;
27706;SDS011;36332;51.384;0.040;2024-02-15T12:03:00;12.18;;;5.28;;
27706;SDS011;36332;51.384;0.040;2024-02-15T12:05:49;8.85;;;3.88;;
27706;SDS011;36332;51.384;0.040;2024-02-15T12:08:37;13.30;;;4.50;;
27706;SDS011;36332;51.384;0.040;2024-02-15T12:11:24;24.98;;;4.78;;
27706;SDS011;36332;51.384;0.040;2024-02-15T12:14:12;10.52;;;4.80;;
27706;SDS011;36332;51.384;0.040;2024-02-15T12:17:12;11.13;;;3.83;;
27706;SDS011;36332;51.384;0.040;2024-02-15T12:20:00;30.15;;;16.63;;
27706;SDS011;36332;51.384;0.040;2024-02-15T12:22:35;14.75;;;6.80;;
27706;SDS011;36332;51.384;0.040;2024-02-15T12:25:16;10.18;;;4.35;;
27706;SDS011;36332;51.384;0.040;2024-02-15T12:27:58;9.52;;;4.05;;
27706;SDS011;36332;51.384;0.040;2024-02-15T12:30:32;11.32;;;5.28;;
27706;SDS011;36332;51.384;0.040;2024-02-15T12:33:09;13.60;;;3.33;;
27706;SDS011;36332;51.384;0.040;2024-02-15T12:35:42;11.07;;;3.80;;
27706;SDS011;36332;51.384;0.040;2024-02-15T12:38:12;5.72;;;2.80;;
27706;SDS011;36332;51.384;0.040;2024-02-15T12:40:44;3.30;;;2.42;;
27706;SDS011;36332;51.384;0.040;2024-02-15T12:43:17;8.23;;;2.85;;
27706;SDS011;36332;51.384;0.040;2024-02-15T12:45:46;3.63;;;2.38;;
27706;SDS011;36332;51.384;0.040;2024-02-15T12:48:14;7.15;;;3.17;;
27706;SDS011;36332;51.384;0.040;2024-02-15T12:50:43;7.05;;;3.38;;
27706;SDS011;36332;51.384;0.040;2024-02-15T12:53:20;7.55;;;3.13;;
27706;SDS011;36332;51.384;0.040;2024-02-15T12:55:53;7.43;;;3.30;;
27706;SDS011;36332;51.384;0.040;2024-02-15T12:58:25;5.57;;;2.03;;
27706;SDS011;36332;51.384;0.040;2024-02-15T13:00:56;8.85;;;4.70;;
27706;SDS011;36332;51.384;0.040;2024-02-15T13:03:26;7.68;;;3.00;;
27706;SDS011;36332;51.384;0.040;2024-02-15T13:05:55;7.30;;;2.70;;
27706;SDS011;36332;51.384;0.040;2024-02-15T13:08:26;14.68;;;9.05;;
27706;SDS011;36332;51.384;0.040;2024-02-15T13:10:54;5.85;;;4.18;;
27706;SDS011;36332;51.384;0.040;2024-02-15T13:13:23;9.30;;;5.25;;
27706;SDS011;36332;51.384;0.040;2024-02-15T13:15:53;6.82;;;3.92;;
27706;SDS011;36332;51.384;0.040;2024-02-15T13:18:23;10.38;;;5.20;;
27706;SDS011;36332;51.384;0.040;2024-02-15T13:20:54;25.05;;;15.35;;
27706;SDS011;36332;51.384;0.040;2024-02-15T13:23:24;10.32;;;3.63;;
27706;SDS011;36332;51.384;0.040;2024-02-15T13:25:53;9.88;;;4.45;;
27706;SDS011;36332;51.384;0.040;2024-02-15T13:28:27;6.38;;;2.10;;
27706;SDS011;36332;51.384;0.040;2024-02-15T13:30:56;4.13;;;1.92;;
27706;SDS011;36332;51.384;0.040;2024-02-15T13:33:24;4.80;;;2.50;;
27706;SDS011;36332;51.384;0.040;2024-02-15T13:35:54;5.50;;;2.78;;
27706;SDS011;36332;51.384;0.040;2024-02-15T13:38:23;5.18;;;3.05;;
27706;SDS011;36332;51.384;0.040;2024-02-15T13:40:56;5.38;;;3.50;;
27706;SDS011;36332;51.384;0.040;2024-02-15T13:43:35;5.63;;;2.55;;
27706;SDS011;36332;51.384;0.040;2024-02-15T13:46:03;7.90;;;2.05;;
27706;SDS011;36332;51.384;0.040;2024-02-15T13:48:33;5.72;;;3.35;;
27706;SDS011;36332;51.384;0.040;2024-02-15T13:51:02;7.00;;;3.40;;
27706;SDS011;36332;51.384;0.040;2024-02-15T13:53:31;11.50;;;7.03;;
27706;SDS011;36332;51.384;0.040;2024-02-15T13:56:00;9.07;;;5.07;;
27706;SDS011;36332;51.384;0.040;2024-02-15T13:58:34;10.93;;;4.68;;
27706;SDS011;36332;51.384;0.040;2024-02-15T14:01:03;10.27;;;4.40;;
27706;SDS011;36332;51.384;0.040;2024-02-15T14:03:35;15.50;;;6.40;;
27706;SDS011;36332;51.384;0.040;2024-02-15T14:06:06;13.65;;;5.70;;
27706;SDS011;36332;51.384;0.040;2024-02-15T14:08:35;7.38;;;3.58;;
27706;SDS011;36332;51.384;0.040;2024-02-15T14:11:07;5.88;;;3.00;;
27706;SDS011;36332;51.384;0.040;2024-02-15T14:13:36;12.35;;;4.93;;
27706;SDS011;36332;51.384;0.040;2024-02-15T14:16:05;7.95;;;4.45;;
27706;SDS011;36332;51.384;0.040;2024-02-15T14:18:35;10.85;;;3.88;;
27706;SDS011;36332;51.384;0.040;2024-02-15T14:21:04;9.77;;;3.15;;
27706;SDS011;36332;51.384;0.040;2024-02-15T14:23:33;20.83;;;11.55;;
27706;SDS011;36332;51.384;0.040;2024-02-15T14:26:02;16.05;;;9.05;;
27706;SDS011;36332;51.384;0.040;2024-02-15T14:28:31;29.95;;;20.02;;
27706;SDS011;36332;51.384;0.040;2024-02-15T14:30:59;10.60;;;3.17;;
27706;SDS011;36332;51.384;0.040;2024-02-15T14:33:47;7.40;;;2.90;;
27706;SDS011;36332;51.384;0.040;2024-02-15T14:36:19;7.38;;;4.10;;
27706;SDS011;36332;51.384;0.040;2024-02-15T14:38:47;5.40;;;3.17;;
27706;SDS011;36332;51.384;0.040;2024-02-15T14:41:15;12.68;;;2.95;;
27706;SDS011;36332;51.384;0.040;2024-02-15T14:43:49;29.10;;;4.80;;
27706;SDS011;36332;51.384;0.040;2024-02-15T14:46:19;14.55;;;4.88;;
27706;SDS011;36332;51.384;0.040;2024-02-15T14:48:49;8.68;;;3.55;;
27706;SDS011;36332;51.384;0.040;2024-02-15T14:51:18;11.82;;;3.63;;
27706;SDS011;36332;51.384;0.040;2024-02-15T14:53:49;8.93;;;2.25;;
27706;SDS011;36332;51.384;0.040;2024-02-15T14:56:17;7.88;;;3.60;;
27706;SDS011;36332;51.384;0.040;2024-02-15T14:58:46;16.92;;;9.68;;
27706;SDS011;36332;51.384;0.040;2024-02-15T15:01:17;15.50;;;8.05;;
27706;SDS011;36332;51.384;0.040;2024-02-15T15:03:53;14.57;;;9.73;;
27706;SDS011;36332;51.384;0.040;2024-02-15T15:06:23;10.32;;;2.28;;
27706;SDS011;36332;51.384;0.040;2024-02-15T15:09:10;10.60;;;3.15;;
27706;SDS011;36332;51.384;0.040;2024-02-15T15:12:09;7.97;;;2.33;;
27706;SDS011;36332;51.384;0.040;2024-02-15T15:17:25;7.50;;;3.00;;
27706;SDS011;36332;51.384;0.040;2024-02-15T15:19:55;14.80;;;3.63;;
27706;SDS011;36332;51.384;0.040;2024-02-15T15:22:23;8.10;;;2.67;;
27706;SDS011;36332;51.384;0.040;2024-02-15T15:24:52;4.32;;;2.38;;